Time;durP1;ratioP1;P1;durP2;ratioP2;P2;SDS_P1;SDS_P2;PMS_P1;PMS_P2;Temp;Humidity;BMP_temperature;BMP_pressure;BME280_temperature;BME280_humidity;BME280_pressure;Samples;Min_cycle;Max_cycle;Signal;HPM_P1;HPM_P2
2023/05/25 00:02:03;;;;;;;10.95;4.90;;;10.80;99.90;;;;;;5056484;28;20478;-74
2023/05/25 00:04:33;;;;;;;9.98;5.38;;;10.90;99.90;;;;;;5073372;28;20520;-73
2023/05/25 00:06:59;;;;;;;10.40;5.35;;;10.90;99.90;;;;;;5072764;28;20040;-73
2023/05/25 00:09:25;;;;;;;11.63;4.95;;;10.80;99.90;;;;;;5072820;28;20047;-74
2023/05/25 00:11:51;;;;;;;15.75;5.30;;;10.90;99.90;;;;;;5073103;28;20032;-73
2023/05/25 00:14:17;;;;;;;12.80;5.72;;;10.80;99.90;;;;;;5073066;28;20036;-73
2023/05/25 00:16:44;;;;;;;15.43;6.80;;;10.80;99.90;;;;;;5090945;28;20067;-73
2023/05/25 00:19:10;;;;;;;13.00;6.03;;;10.80;99.90;;;;;;5073055;28;20039;-74
2023/05/25 00:21:37;;;;;;;13.63;4.55;;;10.80;99.90;;;;;;5091436;28;20036;-74
2023/05/25 00:24:04;;;;;;;12.18;5.20;;;10.90;99.90;;;;;;5091202;28;20082;-73
2023/05/25 00:26:29;;;;;;;14.73;5.45;;;10.80;99.90;;;;;;5072810;28;20044;-74
2023/05/25 00:28:55;;;;;;;14.63;5.22;;;10.80;99.90;;;;;;5073223;28;20388;-74
2023/05/25 00:31:21;;;;;;;17.27;5.22;;;10.80;99.90;;;;;;5076620;28;20044;-73
2023/05/25 00:33:46;;;;;;;13.48;5.80;;;10.90;99.90;;;;;;5094829;28;20039;-73
2023/05/25 00:36:12;;;;;;;16.73;5.50;;;10.80;99.90;;;;;;5094490;28;20530;-74
2023/05/25 00:38:37;;;;;;;11.75;4.95;;;10.80;99.90;;;;;;5076230;28;20047;-73
2023/05/25 00:41:04;;;;;;;14.15;5.70;;;10.80;99.90;;;;;;5094572;28;20031;-73
2023/05/25 00:43:30;;;;;;;12.30;5.90;;;10.80;99.90;;;;;;5076315;28;20403;-74
2023/05/25 00:45:57;;;;;;;11.82;5.68;;;10.80;99.90;;;;;;5094169;28;20040;-73
2023/05/25 00:48:25;;;;;;;12.90;4.93;;;10.80;99.90;;;;;;5076140;28;20629;-73
2023/05/25 00:50:53;;;;;;;11.13;5.22;;;10.80;99.90;;;;;;5076217;28;20036;-74
2023/05/25 00:53:20;;;;;;;14.57;5.22;;;10.80;99.90;;;;;;5076086;28;20539;-76
2023/05/25 00:56:09;;;;;;;13.70;5.10;;;10.70;99.90;;;;;;5075865;28;20114;-76
2023/05/25 00:58:40;;;;;;;12.38;5.20;;;10.60;99.90;;;;;;5081858;28;20044;-74
2023/05/25 01:01:10;;;;;;;9.35;5.85;;;10.70;99.90;;;;;;5094143;28;20514;-73
2023/05/25 01:03:38;;;;;;;14.23;5.93;;;10.70;99.90;;;;;;5076261;28;20416;-73
2023/05/25 01:06:10;;;;;;;14.45;5.00;;;10.60;99.90;;;;;;5093679;28;20087;-73
2023/05/25 01:08:39;;;;;;;13.48;4.90;;;10.60;99.90;;;;;;5075695;28;20041;-73
2023/05/25 01:11:06;;;;;;;14.80;5.82;;;10.60;99.90;;;;;;5076049;28;20055;-73
2023/05/25 01:13:33;;;;;;;14.45;6.13;;;10.60;99.90;;;;;;5094027;28;20036;-73
2023/05/25 01:15:59;;;;;;;11.02;5.22;;;10.60;99.90;;;;;;5075607;28;20123;-73
2023/05/25 01:18:25;;;;;;;12.88;5.60;;;10.50;99.90;;;;;;5075735;28;20071;-72
2023/05/25 01:21:01;;;;;;;11.63;5.47;;;10.50;99.90;;;;;;5093817;28;20036;-73
2023/05/25 01:23:32;;;;;;;14.93;5.75;;;10.50;99.90;;;;;;5093949;28;20055;-72
2023/05/25 01:26:01;;;;;;;9.50;6.03;;;10.50;99.90;;;;;;5093550;28;20125;-73
2023/05/25 01:28:39;;;;;;;11.43;5.25;;;10.40;99.90;;;;;;5093489;28;20032;-73
2023/05/25 01:31:07;;;;;;;12.52;4.95;;;10.50;99.90;;;;;;5094088;28;20036;-73
2023/05/25 01:33:34;;;;;;;12.25;5.20;;;10.50;99.90;;;;;;5093677;28;20032;-73
2023/05/25 01:36:01;;;;;;;13.07;5.70;;;10.40;99.90;;;;;;5058398;28;20118;-73
2023/05/25 01:38:26;;;;;;;8.13;5.25;;;10.40;99.90;;;;;;5075261;28;20118;-73
2023/05/25 01:40:52;;;;;;;10.63;5.53;;;10.50;99.90;;;;;;5074561;28;20125;-73
2023/05/25 01:43:18;;;;;;;14.95;5.40;;;10.50;99.90;;;;;;5075435;28;20036;-73
2023/05/25 01:45:44;;;;;;;13.77;6.75;;;10.40;99.90;;;;;;5075083;28;20076;-73
2023/05/25 01:48:20;;;;;;;15.48;6.47;;;10.40;99.90;;;;;;5058193;28;20067;-76
2023/05/25 01:50:58;;;;;;;12.20;5.97;;;10.30;99.90;;;;;;5093302;28;20035;-74
2023/05/25 01:53:52;;;;;;;15.10;7.10;;;10.30;99.90;;;;;;5075193;28;20032;-74
2023/05/25 01:56:20;;;;;;;15.32;6.25;;;10.30;99.90;;;;;;5074581;28;20532;-76
2023/05/25 01:58:49;;;;;;;14.40;5.97;;;10.40;99.90;;;;;;5092531;28;20042;-72
2023/05/25 02:01:17;;;;;;;11.50;5.88;;;10.40;99.90;;;;;;5075027;28;20408;-73
2023/05/25 02:03:45;;;;;;;16.20;5.75;;;10.30;99.90;;;;;;5074785;28;20438;-73
2023/05/25 02:06:11;;;;;;;10.63;6.35;;;10.30;99.90;;;;;;5074194;28;20150;-73
2023/05/25 02:08:36;;;;;;;11.68;5.95;;;10.30;99.90;;;;;;5074411;28;20039;-73
2023/05/25 02:11:02;;;;;;;11.23;6.00;;;10.30;99.90;;;;;;5074740;28;20087;-73
2023/05/25 02:13:28;;;;;;;14.10;6.18;;;10.20;99.90;;;;;;5092765;28;20040;-76
2023/05/25 02:15:53;;;;;;;15.43;7.45;;;10.20;99.90;;;;;;5057914;28;20040;-76
2023/05/25 02:18:19;;;;;;;14.43;7.20;;;10.20;99.90;;;;;;5092618;28;20032;-75
2023/05/25 02:20:46;;;;;;;10.75;5.80;;;10.20;99.90;;;;;;5074502;28;20089;-76
2023/05/25 02:23:11;;;;;;;10.80;5.75;;;10.10;99.90;;;;;;5074722;28;20047;-76
2023/05/25 02:25:37;;;;;;;15.45;7.03;;;10.10;99.90;;;;;;5074462;28;20040;-76
2023/05/25 02:28:03;;;;;;;9.77;6.03;;;10.10;99.90;;;;;;5074087;28;20036;-76
2023/05/25 02:30:29;;;;;;;14.68;6.60;;;10.10;99.90;;;;;;5074493;28;20411;-76
2023/05/25 02:32:55;;;;;;;12.10;5.82;;;10.00;99.90;;;;;;5092597;28;20032;-76
2023/05/25 02:35:21;;;;;;;13.07;6.32;;;10.00;99.90;;;;;;5092432;28;20036;-75
2023/05/25 02:37:46;;;;;;;15.00;7.15;;;10.00;99.90;;;;;;5092043;28;20381;-75
2023/05/25 02:40:13;;;;;;;16.27;6.53;;;10.00;99.90;;;;;;5074128;28;20098;-76
2023/05/25 02:42:39;;;;;;;12.80;5.90;;;10.00;99.90;;;;;;5092183;28;20454;-76
2023/05/25 02:45:09;;;;;;;13.10;6.72;;;10.00;99.90;;;;;;5092326;28;20181;-74
2023/05/25 02:47:35;;;;;;;11.45;5.95;;;10.00;99.90;;;;;;5073745;28;20079;-75
2023/05/25 02:50:01;;;;;;;14.18;6.05;;;10.00;99.90;;;;;;5073889;28;20043;-75
2023/05/25 02:52:26;;;;;;;13.23;6.10;;;10.00;99.90;;;;;;5091774;28;20040;-73
2023/05/25 02:54:52;;;;;;;11.57;6.00;;;9.90;99.90;;;;;;5091942;28;20032;-73
2023/05/25 02:57:17;;;;;;;15.65;6.35;;;9.90;99.90;;;;;;5091781;28;20036;-73
2023/05/25 02:59:43;;;;;;;14.93;5.40;;;9.90;99.90;;;;;;5073940;28;20078;-73
2023/05/25 03:02:08;;;;;;;10.68;6.30;;;10.00;99.90;;;;;;5092038;28;20075;-73
2023/05/25 03:04:36;;;;;;;14.65;6.18;;;9.90;99.90;;;;;;5091844;28;20032;-73
2023/05/25 03:07:02;;;;;;;13.80;6.30;;;10.00;99.90;;;;;;5073316;28;20044;-73
2023/05/25 03:09:28;;;;;;;12.43;6.03;;;10.00;99.90;;;;;;5091696;28;20047;-73
2023/05/25 03:11:53;;;;;;;11.52;6.47;;;9.90;99.90;;;;;;5091326;28;20035;-75
2023/05/25 03:14:19;;;;;;;11.85;5.93;;;9.90;99.90;;;;;;5088743;28;20036;-75
2023/05/25 03:16:47;;;;;;;13.13;6.10;;;9.90;99.90;;;;;;5089689;28;20079;-76
2023/05/25 03:19:13;;;;;;;14.82;7.10;;;9.90;99.90;;;;;;5078281;28;20052;-74
2023/05/25 03:21:38;;;;;;;12.93;7.05;;;9.80;99.90;;;;;;5071621;28;20054;-75
2023/05/25 03:24:04;;;;;;;13.10;6.78;;;9.80;99.90;;;;;;5053473;28;20488;-75
2023/05/25 03:26:31;;;;;;;12.77;6.07;;;9.80;99.90;;;;;;5071273;28;20041;-76
2023/05/25 03:28:56;;;;;;;12.98;6.43;;;9.80;99.90;;;;;;5053583;28;20417;-76
2023/05/25 03:31:22;;;;;;;14.77;6.97;;;9.80;99.90;;;;;;5071595;28;20029;-75
2023/05/25 03:33:48;;;;;;;12.50;6.45;;;9.80;99.90;;;;;;5071408;28;20079;-75
2023/05/25 03:36:16;;;;;;;11.68;6.28;;;9.80;99.90;;;;;;5071271;28;20037;-75
2023/05/25 03:38:42;;;;;;;13.07;6.50;;;9.80;99.90;;;;;;5071200;28;20076;-75
2023/05/25 03:41:08;;;;;;;17.92;6.47;;;9.80;99.90;;;;;;5053658;28;20478;-75
2023/05/25 03:43:33;;;;;;;14.60;6.15;;;9.80;99.90;;;;;;5053330;28;20072;-75
2023/05/25 03:45:59;;;;;;;13.55;6.88;;;9.80;99.90;;;;;;5071112;28;20044;-76
2023/05/25 03:48:24;;;;;;;11.48;5.72;;;9.80;99.90;;;;;;5063253;28;20469;-76
2023/05/25 03:50:50;;;;;;;13.27;6.40;;;9.80;99.90;;;;;;5063269;28;20079;-76
2023/05/25 03:53:16;;;;;;;12.80;6.25;;;9.80;99.90;;;;;;5071141;28;20557;-75
2023/05/25 03:55:42;;;;;;;13.02;6.20;;;9.80;99.90;;;;;;5071235;28;20120;-76
2023/05/25 03:58:08;;;;;;;11.48;6.30;;;9.80;99.90;;;;;;5071143;28;20032;-74
2023/05/25 04:00:35;;;;;;;19.30;8.20;;;9.90;99.90;;;;;;5053115;28;20044;-76
2023/05/25 04:03:01;;;;;;;19.75;8.55;;;9.90;99.90;;;;;;5071177;28;20082;-76
2023/05/25 04:05:26;;;;;;;12.35;6.18;;;10.00;99.90;;;;;;5056111;28;20121;-76
2023/05/25 04:07:52;;;;;;;11.52;6.95;;;10.00;99.90;;;;;;5056430;28;20036;-75
2023/05/25 04:10:17;;;;;;;18.50;7.35;;;10.00;99.90;;;;;;5056894;28;20037;-75
2023/05/25 04:12:43;;;;;;;16.30;7.95;;;10.00;99.90;;;;;;5040322;28;20033;-76
2023/05/25 04:15:11;;;;;;;13.85;6.68;;;10.00;99.90;;;;;;5056952;28;20036;-76
2023/05/25 04:17:36;;;;;;;12.43;6.75;;;10.10;99.90;;;;;;5056410;28;20070;-76
2023/05/25 04:20:03;;;;;;;15.48;7.20;;;10.10;99.90;;;;;;5056591;28;20110;-74
2023/05/25 04:22:28;;;;;;;15.30;7.68;;;10.20;99.90;;;;;;5056583;28;20059;-75
2023/05/25 04:24:54;;;;;;;17.65;6.70;;;10.20;99.90;;;;;;5056658;28;20127;-74
2023/05/25 04:27:21;;;;;;;15.18;6.25;;;10.30;99.90;;;;;;5056385;28;20508;-75
2023/05/25 04:29:49;;;;;;;14.52;6.88;;;10.40;99.90;;;;;;5074517;28;20032;-75
2023/05/25 04:32:16;;;;;;;15.43;6.78;;;10.40;99.90;;;;;;5074539;28;20090;-75
2023/05/25 04:34:43;;;;;;;12.05;6.40;;;10.40;99.90;;;;;;5039888;28;20037;-76
2023/05/25 04:37:09;;;;;;;15.95;6.70;;;10.50;99.90;;;;;;5055994;28;20048;-76
2023/05/25 04:39:35;;;;;;;14.48;7.05;;;10.60;99.90;;;;;;5039913;28;20408;-76
2023/05/25 04:42:03;;;;;;;13.45;6.35;;;10.60;99.90;;;;;;5056644;28;20041;-76
2023/05/25 04:44:29;;;;;;;15.07;6.90;;;10.70;99.90;;;;;;5056307;28;20050;-74
2023/05/25 04:46:55;;;;;;;11.85;6.63;;;10.70;99.90;;;;;;5039326;28;20144;-75
2023/05/25 04:49:20;;;;;;;13.98;6.65;;;10.90;99.90;;;;;;5056234;28;20499;-74
2023/05/25 04:51:46;;;;;;;18.42;7.25;;;11.10;99.90;;;;;;5039833;28;20481;-76
2023/05/25 04:54:11;;;;;;;18.02;7.43;;;11.20;99.90;;;;;;5074221;28;20484;-75
2023/05/25 04:56:37;;;;;;;10.68;6.40;;;11.40;99.90;;;;;;5073908;28;20098;-76
2023/05/25 04:59:03;;;;;;;19.23;6.80;;;11.60;99.90;;;;;;5073674;28;20048;-75
2023/05/25 05:01:29;;;;;;;17.40;7.10;;;11.80;99.90;;;;;;5073676;28;20044;-75
2023/05/25 05:03:55;;;;;;;12.85;6.10;;;12.10;99.90;;;;;;5055939;28;20115;-76
2023/05/25 05:06:21;;;;;;;15.38;6.38;;;12.30;99.90;;;;;;5055387;28;20503;-76
2023/05/25 05:08:47;;;;;;;16.27;6.10;;;12.50;99.90;;;;;;5086715;22;20040;-72
2023/05/25 05:11:12;;;;;;;14.88;6.07;;;12.80;99.90;;;;;;5073888;28;20431;-72
2023/05/25 05:13:38;;;;;;;15.63;5.68;;;13.10;99.90;;;;;;5073367;28;20044;-73
2023/05/25 05:16:04;;;;;;;14.55;5.65;;;13.40;99.90;;;;;;5089190;28;20075;-74
2023/05/25 05:18:30;;;;;;;15.00;6.03;;;13.60;99.90;;;;;;5055526;28;20036;-73
2023/05/25 05:20:56;;;;;;;16.23;6.20;;;13.70;99.90;;;;;;5054487;28;20036;-73
2023/05/25 05:23:21;;;;;;;11.23;5.72;;;13.50;99.90;;;;;;5073731;28;20170;-73
2023/05/25 05:25:47;;;;;;;17.70;5.75;;;13.50;99.90;;;;;;5072449;28;20046;-73
2023/05/25 05:28:13;;;;;;;15.55;6.10;;;13.50;99.90;;;;;;5071909;28;20039;-72
2023/05/25 05:30:38;;;;;;;17.60;5.82;;;13.30;99.90;;;;;;5055289;28;20123;-73
2023/05/25 05:33:04;;;;;;;13.02;5.25;;;13.30;99.90;;;;;;5073483;28;20056;-73
2023/05/25 05:35:30;;;;;;;14.02;6.47;;;13.20;99.90;;;;;;5072040;28;20044;-73
2023/05/25 05:37:56;;;;;;;12.60;5.78;;;13.20;99.90;;;;;;5071668;28;20129;-73
2023/05/25 05:40:21;;;;;;;13.52;5.22;;;13.20;99.90;;;;;;5071899;28;20040;-73
2023/05/25 05:42:47;;;;;;;16.65;5.90;;;13.00;99.90;;;;;;5072056;28;20052;-73
2023/05/25 05:45:12;;;;;;;16.55;6.00;;;12.90;99.90;;;;;;5072968;28;20046;-73
2023/05/25 05:47:38;;;;;;;14.82;5.68;;;12.90;99.90;;;;;;5071564;28;20040;-73
2023/05/25 05:50:05;;;;;;;19.10;5.80;;;12.90;99.90;;;;;;5073097;28;20044;-74
2023/05/25 05:52:34;;;;;;;17.02;5.90;;;12.90;99.90;;;;;;5055830;28;20043;-74
2023/05/25 05:54:59;;;;;;;14.18;5.57;;;12.80;99.90;;;;;;5072840;28;20040;-73
2023/05/25 05:57:25;;;;;;;19.70;5.65;;;12.90;99.90;;;;;;5071309;28;20075;-73
2023/05/25 05:59:50;;;;;;;10.98;5.57;;;13.00;99.90;;;;;;5071400;28;20048;-73
2023/05/25 06:02:16;;;;;;;11.68;4.93;;;13.10;99.90;;;;;;5071714;28;20051;-73
2023/05/25 06:04:41;;;;;;;12.43;4.97;;;13.20;99.90;;;;;;5071587;28;20096;-73
2023/05/25 06:07:07;;;;;;;14.07;5.57;;;13.20;99.90;;;;;;5072546;28;20060;-73
2023/05/25 06:09:33;;;;;;;11.13;4.25;;;13.40;99.90;;;;;;5072272;28;20408;-73
2023/05/25 06:11:58;;;;;;;13.45;4.57;;;13.80;99.90;;;;;;5072474;28;20043;-72
2023/05/25 06:14:24;;;;;;;11.88;4.53;;;14.20;99.90;;;;;;5059779;28;20490;-72
2023/05/25 06:16:51;;;;;;;14.70;4.28;;;14.50;99.90;;;;;;5054601;28;20504;-72
2023/05/25 06:19:16;;;;;;;10.55;4.32;;;14.50;99.90;;;;;;5071025;28;20128;-73
2023/05/25 06:21:42;;;;;;;12.40;4.45;;;14.50;99.90;;;;;;5072422;28;20051;-72
2023/05/25 06:24:07;;;;;;;10.27;3.50;;;14.70;99.90;;;;;;5072442;28;20036;-72
2023/05/25 06:26:33;;;;;;;18.48;4.53;;;14.70;99.90;;;;;;5070233;28;20067;-72
2023/05/25 06:28:59;;;;;;;18.02;3.50;;;14.60;99.90;;;;;;5071121;28;20036;-72
2023/05/25 06:31:25;;;;;;;15.88;3.67;;;14.70;99.90;;;;;;5072490;28;20119;-72
2023/05/25 06:33:50;;;;;;;16.17;4.80;;;14.70;99.90;;;;;;5071058;28;20043;-73
2023/05/25 06:36:16;;;;;;;14.68;3.97;;;14.80;99.90;;;;;;5070927;28;20127;-73
2023/05/25 06:38:41;;;;;;;15.57;4.35;;;14.80;99.90;;;;;;5070992;28;20039;-73
2023/05/25 06:41:08;;;;;;;14.20;3.78;;;14.50;99.90;;;;;;5071029;28;20097;-72
2023/05/25 06:43:34;;;;;;;13.50;4.10;;;14.70;99.90;;;;;;5054291;28;20045;-73
2023/05/25 06:46:00;;;;;;;17.08;4.20;;;14.40;99.90;;;;;;5073716;28;20074;-73
2023/05/25 06:48:25;;;;;;;13.60;3.80;;;14.40;99.90;;;;;;5082491;28;20032;-73
2023/05/25 06:50:51;;;;;;;14.43;3.95;;;14.50;99.90;;;;;;5080125;28;20032;-73
2023/05/25 06:53:16;;;;;;;13.50;3.83;;;14.30;99.90;;;;;;5074534;28;20036;-73
2023/05/25 06:55:43;;;;;;;18.95;4.18;;;14.10;99.90;;;;;;5054142;28;20064;-73
2023/05/25 06:58:08;;;;;;;13.45;4.40;;;14.30;99.90;;;;;;5071978;28;20109;-72
2023/05/25 07:00:34;;;;;;;16.55;4.18;;;14.20;99.90;;;;;;5070663;28;20032;-72
2023/05/25 07:03:00;;;;;;;11.15;3.97;;;14.20;99.90;;;;;;5071951;28;20036;-73
2023/05/25 07:05:25;;;;;;;15.52;4.28;;;14.30;99.90;;;;;;5070421;28;20132;-72
2023/05/25 07:07:51;;;;;;;28.77;6.30;;;14.40;99.90;;;;;;5070184;28;20051;-72
2023/05/25 07:10:17;;;;;;;16.98;5.10;;;14.50;99.90;;;;;;5053944;28;20067;-72
2023/05/25 07:12:43;;;;;;;15.73;4.90;;;15.00;99.90;;;;;;5070761;28;20044;-73
2023/05/25 07:15:09;;;;;;;21.30;4.07;;;15.50;99.90;;;;;;5070603;28;20495;-72
2023/05/25 07:17:35;;;;;;;19.05;4.47;;;15.70;99.90;;;;;;5070243;28;20045;-72
2023/05/25 07:20:01;;;;;;;18.65;4.90;;;16.10;99.90;;;;;;5070544;28;20041;-73
2023/05/25 07:22:27;;;;;;;13.20;4.40;;;16.20;99.90;;;;;;5071902;28;20036;-71
2023/05/25 07:24:52;;;;;;;14.93;4.97;;;16.40;99.90;;;;;;5075567;28;20165;-73
2023/05/25 07:27:18;;;;;;;23.40;4.68;;;16.80;99.90;;;;;;5088571;28;20165;-73
2023/05/25 07:29:44;;;;;;;19.25;4.50;;;16.80;99.90;;;;;;5090236;28;20036;-73
2023/05/25 07:32:10;;;;;;;10.07;3.95;;;17.00;99.90;;;;;;5090604;28;20040;-72
2023/05/25 07:34:35;;;;;;;15.38;3.80;;;17.20;99.60;;;;;;5090511;28;20119;-72
2023/05/25 07:37:01;;;;;;;16.55;4.20;;;17.60;99.50;;;;;;5090526;28;20036;-72
2023/05/25 07:39:27;;;;;;;16.70;4.57;;;17.20;98.30;;;;;;5093492;28;20044;-73
2023/05/25 07:41:53;;;;;;;14.32;3.95;;;17.70;97.50;;;;;;5077776;28;20040;-74
2023/05/25 07:44:18;;;;;;;16.25;4.32;;;18.20;97.90;;;;;;5077623;28;20568;-73
2023/05/25 07:46:44;;;;;;;17.95;4.65;;;18.30;96.90;;;;;;5094477;28;20039;-73
2023/05/25 07:49:14;;;;;;;14.68;4.60;;;18.10;96.10;;;;;;5094120;28;20043;-73
2023/05/25 07:51:41;;;;;;;15.35;4.05;;;18.50;96.20;;;;;;5078037;28;20039;-72
2023/05/25 07:54:06;;;;;;;20.45;4.28;;;17.80;96.00;;;;;;5094151;28;20036;-74
2023/05/25 07:56:32;;;;;;;19.67;4.22;;;17.20;95.20;;;;;;5094070;28;20130;-72
2023/05/25 07:58:58;;;;;;;14.13;4.68;;;17.20;95.70;;;;;;5090062;28;20138;-72
2023/05/25 08:01:24;;;;;;;19.00;4.60;;;16.80;96.00;;;;;;5074401;28;20048;-73
2023/05/25 08:03:49;;;;;;;21.20;5.05;;;16.40;97.20;;;;;;5056936;28;20052;-73
2023/05/25 08:06:15;;;;;;;24.17;4.57;;;16.50;97.50;;;;;;5073453;28;20047;-73
2023/05/25 08:08:43;;;;;;;19.33;4.32;;;16.90;97.10;;;;;;5073028;28;20032;-73
2023/05/25 08:11:10;;;;;;;15.13;3.95;;;17.40;94.70;;;;;;5073479;28;20036;-73
2023/05/25 08:13:36;;;;;;;15.65;5.00;;;17.60;93.00;;;;;;5056686;28;20680;-72
2023/05/25 08:16:01;;;;;;;18.70;4.25;;;17.80;91.10;;;;;;5074734;28;20041;-73
2023/05/25 08:18:27;;;;;;;15.73;4.20;;;18.00;89.50;;;;;;5056603;28;20038;-73
2023/05/25 08:20:52;;;;;;;19.48;4.85;;;17.90;89.60;;;;;;5073433;28;20040;-73
2023/05/25 08:23:18;;;;;;;16.98;4.15;;;18.00;90.00;;;;;;5056734;28;20066;-73
2023/05/25 08:25:44;;;;;;;17.13;4.20;;;17.90;91.20;;;;;;5073481;28;20032;-73
2023/05/25 08:28:10;;;;;;;15.90;5.15;;;17.40;92.10;;;;;;5074457;28;20040;-73
2023/05/25 08:30:35;;;;;;;19.63;5.50;;;17.10;93.10;;;;;;5074685;28;20102;-73
2023/05/25 08:33:01;;;;;;;15.23;4.43;;;16.60;93.50;;;;;;5073498;28;20063;-74
2023/05/25 08:35:26;;;;;;;21.77;4.18;;;16.80;94.10;;;;;;5056611;28;20069;-74
2023/05/25 08:37:52;;;;;;;16.45;4.25;;;17.40;93.50;;;;;;5072772;28;20397;-74
2023/05/25 08:40:21;;;;;;;18.67;4.47;;;18.00;92.00;;;;;;5073115;28;20246;-73
2023/05/25 08:42:46;;;;;;;16.45;4.13;;;17.90;91.20;;;;;;5074221;28;20492;-73
2023/05/25 08:45:12;;;;;;;20.27;4.55;;;17.20;91.20;;;;;;5073265;28;20136;-75
2023/05/25 08:47:41;;;;;;;14.25;4.40;;;17.10;91.70;;;;;;5072706;28;20037;-74
2023/05/25 08:50:08;;;;;;;19.05;5.43;;;17.10;91.60;;;;;;5073477;28;20047;-75
2023/05/25 08:52:37;;;;;;;13.73;4.53;;;17.20;92.70;;;;;;5074071;28;20455;-74
2023/05/25 08:55:07;;;;;;;20.05;4.20;;;17.50;90.80;;;;;;5074329;28;20036;-75
2023/05/25 08:57:38;;;;;;;18.80;4.32;;;17.80;87.90;;;;;;5070079;28;20036;-73
2023/05/25 09:00:11;;;;;;;15.60;4.38;;;17.80;85.10;;;;;;5047914;28;20544;-73
2023/05/25 09:03:13;;;;;;;15.23;4.10;;;18.00;83.60;;;;;;5074049;28;20411;-74
2023/05/25 09:05:39;;;;;;;15.85;4.40;;;17.70;85.20;;;;;;5056142;28;20476;-74
2023/05/25 09:08:08;;;;;;;22.30;4.28;;;17.10;90.00;;;;;;5072167;28;20075;-74
2023/05/25 09:10:35;;;;;;;20.40;4.55;;;16.50;91.00;;;;;;5055707;28;20448;-74
2023/05/25 09:13:01;;;;;;;11.88;4.05;;;16.80;91.50;;;;;;5072570;28;20040;-74
2023/05/25 09:15:27;;;;;;;13.23;3.70;;;17.10;90.40;;;;;;5073669;28;20041;-73
2023/05/25 09:17:52;;;;;;;18.13;3.80;;;17.20;90.60;;;;;;5072149;28;20300;-74
2023/05/25 09:20:19;;;;;;;16.45;4.18;;;17.80;87.10;;;;;;5072228;28;20222;-73
2023/05/25 09:22:46;;;;;;;9.43;3.80;;;17.80;84.60;;;;;;5073479;28;20512;-74
2023/05/25 09:25:16;;;;;;;19.50;4.28;;;18.00;84.90;;;;;;5072288;28;20123;-73
2023/05/25 09:27:42;;;;;;;15.85;4.25;;;18.10;84.80;;;;;;5071811;28;20442;-72
2023/05/25 09:30:08;;;;;;;11.20;3.88;;;17.80;84.80;;;;;;5072030;28;20040;-73
2023/05/25 09:32:34;;;;;;;16.42;4.13;;;17.90;84.30;;;;;;5071942;28;20024;-73
2023/05/25 09:35:12;;;;;;;14.73;4.45;;;18.00;82.70;;;;;;5072325;28;20041;-73
2023/05/25 09:37:39;;;;;;;16.27;4.32;;;17.90;81.80;;;;;;5073177;28;20039;-74
2023/05/25 09:40:05;;;;;;;15.90;4.35;;;17.70;84.70;;;;;;5072160;28;20063;-75
2023/05/25 09:42:32;;;;;;;14.95;4.88;;;16.70;85.50;;;;;;5055155;28;20098;-75
2023/05/25 09:44:58;;;;;;;17.55;3.75;;;16.50;90.40;;;;;;5071861;28;20036;-75
2023/05/25 09:47:28;;;;;;;17.35;4.82;;;16.20;91.10;;;;;;5055050;28;20575;-73
2023/05/25 09:49:55;;;;;;;17.67;4.68;;;16.30;91.80;;;;;;5053564;28;20079;-72
2023/05/25 09:52:20;;;;;;;19.52;5.10;;;16.10;92.10;;;;;;5071922;28;20090;-74
2023/05/25 09:54:50;;;;;;;13.50;4.13;;;16.10;91.60;;;;;;5071710;28;20492;-74
2023/05/25 09:57:18;;;;;;;15.20;4.28;;;16.20;91.30;;;;;;5073049;28;20044;-74
2023/05/25 09:59:44;;;;;;;19.98;5.32;;;16.20;90.90;;;;;;5054990;28;20044;-74
2023/05/25 10:02:11;;;;;;;17.35;4.95;;;15.80;91.40;;;;;;5053828;28;20047;-74
2023/05/25 10:04:37;;;;;;;12.82;4.35;;;15.80;92.30;;;;;;5054818;28;20051;-74
2023/05/25 10:07:06;;;;;;;17.80;4.07;;;15.90;90.80;;;;;;5071229;28;20052;-74
2023/05/25 10:09:37;;;;;;;13.73;4.32;;;16.10;90.10;;;;;;5059628;28;20158;-74
2023/05/25 10:12:03;;;;;;;20.17;5.38;;;16.30;90.50;;;;;;5088369;28;20444;-74
2023/05/25 10:14:30;;;;;;;15.05;3.90;;;16.00;90.50;;;;;;5091542;28;20403;-75
2023/05/25 10:17:02;;;;;;;26.55;5.25;;;16.20;91.20;;;;;;5091113;28;20036;-74
2023/05/25 10:19:40;;;;;;;15.50;4.30;;;15.50;91.30;;;;;;5091901;28;20125;-74
2023/05/25 10:22:20;;;;;;;18.75;5.15;;;15.60;91.50;;;;;;5090904;28;20097;-74
2023/05/25 10:25:25;;;;;;;22.70;5.47;;;15.60;92.20;;;;;;5100295;27;20138;-75
2023/05/25 10:28:12;;;;;;;14.65;3.90;;;15.70;92.70;;;;;;5096032;28;20040;-74
2023/05/25 10:30:38;;;;;;;16.23;4.65;;;15.90;93.80;;;;;;5124837;27;20035;-74
2023/05/25 10:33:04;;;;;;;16.88;4.80;;;15.90;93.30;;;;;;5120150;28;20051;-74
2023/05/25 10:35:31;;;;;;;15.48;4.43;;;15.80;93.30;;;;;;5116850;28;20054;-74
2023/05/25 10:37:58;;;;;;;17.40;4.45;;;15.70;93.00;;;;;;5109617;28;20046;-75
2023/05/25 10:40:24;;;;;;;20.80;4.53;;;15.60;92.80;;;;;;5110232;28;20036;-73
2023/05/25 10:42:50;;;;;;;18.00;4.90;;;15.40;93.50;;;;;;5113052;28;20050;-73
2023/05/25 10:45:17;;;;;;;21.73;5.45;;;15.60;93.40;;;;;;5109120;28;20709;-73
2023/05/25 10:47:45;;;;;;;20.15;5.95;;;15.80;92.70;;;;;;5109090;28;20115;-74
2023/05/25 10:50:23;;;;;;;19.98;5.40;;;15.70;92.30;;;;;;5091257;28;20134;-73
2023/05/25 10:53:04;;;;;;;16.50;4.85;;;15.80;93.00;;;;;;5108051;28;20485;-73
2023/05/25 10:55:52;;;;;;;21.40;5.13;;;15.80;93.50;;;;;;5091011;28;20069;-74
2023/05/25 10:58:20;;;;;;;19.35;4.93;;;15.80;93.50;;;;;;5110367;28;20069;-73
2023/05/25 11:01:00;;;;;;;19.65;5.45;;;16.00;93.50;;;;;;5090707;28;20040;-73
2023/05/25 11:03:55;;;;;;;17.85;5.40;;;16.30;94.10;;;;;;5108946;28;20643;-73
2023/05/25 11:06:45;;;;;;;24.80;6.20;;;16.10;93.10;;;;;;5107451;28;20044;-74
2023/05/25 11:09:32;;;;;;;23.40;5.53;;;16.00;93.30;;;;;;5067771;23;20048;-75
2023/05/25 11:12:00;;;;;;;24.60;5.50;;;15.90;93.80;;;;;;5043147;28;20099;-75
2023/05/25 11:14:28;;;;;;;20.92;5.20;;;15.80;94.00;;;;;;5027083;28;20409;-75
2023/05/25 11:17:12;;;;;;;17.23;5.18;;;15.70;94.70;;;;;;5047647;28;20516;-74
2023/05/25 11:19:47;;;;;;;20.30;5.50;;;15.50;95.10;;;;;;5045816;28;20041;-74
2023/05/25 11:22:29;;;;;;;22.08;5.25;;;15.40;95.00;;;;;;5046222;28;20109;-75
2023/05/25 11:24:57;;;;;;;29.65;6.13;;;15.40;94.70;;;;;;5046878;28;20041;-76
2023/05/25 11:27:27;;;;;;;23.45;6.78;;;15.40;94.90;;;;;;5046716;28;20053;-75
2023/05/25 11:29:56;;;;;;;26.52;7.30;;;15.30;95.10;;;;;;5029760;28;20052;-74
2023/05/25 11:32:26;;;;;;;29.58;6.60;;;15.20;95.50;;;;;;5046522;28;20045;-75
2023/05/25 11:34:52;;;;;;;25.17;5.13;;;15.30;95.80;;;;;;5040866;28;20037;-75
2023/05/25 11:37:20;;;;;;;16.27;4.75;;;15.30;95.40;;;;;;5029650;28;20030;-74
2023/05/25 11:39:53;;;;;;;24.70;5.78;;;15.30;95.00;;;;;;5017204;28;20042;-75
2023/05/25 11:42:23;;;;;;;17.98;4.43;;;15.30;94.60;;;;;;5013149;28;20045;-75
2023/05/25 11:44:50;;;;;;;22.20;6.07;;;15.20;94.80;;;;;;5013159;28;20568;-75
2023/05/25 11:47:18;;;;;;;24.45;5.85;;;15.50;94.80;;;;;;5012760;28;20042;-74
2023/05/25 11:49:46;;;;;;;22.30;4.63;;;15.70;93.80;;;;;;5014068;28;20053;-74
2023/05/25 11:52:16;;;;;;;23.13;5.93;;;15.50;93.70;;;;;;5012895;28;20046;-73
2023/05/25 11:54:42;;;;;;;19.10;5.10;;;15.40;93.20;;;;;;5013377;28;20124;-74
2023/05/25 11:57:17;;;;;;;17.88;4.70;;;15.50;92.60;;;;;;5027040;28;20045;-74
2023/05/25 11:59:54;;;;;;;15.52;4.70;;;15.70;91.60;;;;;;5019931;28;20042;-74
2023/05/25 12:02:21;;;;;;;15.63;4.25;;;15.90;91.50;;;;;;5020841;28;20048;-74
2023/05/25 12:04:57;;;;;;;19.08;4.88;;;16.00;90.40;;;;;;5022034;28;20497;-73
2023/05/25 12:07:23;;;;;;;16.90;5.05;;;15.80;90.40;;;;;;5025502;28;20037;-74
2023/05/25 12:09:49;;;;;;;25.00;6.43;;;15.90;90.90;;;;;;5032423;28;20446;-74
2023/05/25 12:12:15;;;;;;;21.55;6.32;;;16.10;90.80;;;;;;5033721;28;20084;-74
2023/05/25 12:14:48;;;;;;;18.92;5.35;;;15.90;91.00;;;;;;5006862;28;20073;-75
2023/05/25 12:17:14;;;;;;;;;;;15.70;91.60;;;;;;5012815;28;20067;-74
2023/05/25 12:19:40;;;;;;;19.08;4.25;;;15.40;91.70;;;;;;4995923;28;19918;-74
2023/05/25 12:22:06;;;;;;;17.45;4.55;;;15.40;92.10;;;;;;5004380;28;20037;-75
2023/05/25 12:24:32;;;;;;;16.63;6.07;;;15.20;91.80;;;;;;5012557;28;20050;-74
2023/05/25 12:26:58;;;;;;;19.05;4.50;;;15.30;92.20;;;;;;5012645;28;20069;-76
2023/05/25 12:29:25;;;;;;;18.40;5.20;;;15.30;92.60;;;;;;5012204;28;20041;-74
2023/05/25 12:31:50;;;;;;;18.27;4.95;;;15.60;92.00;;;;;;4996086;28;20038;-74
2023/05/25 12:34:18;;;;;;;19.10;4.38;;;15.20;92.90;;;;;;5012670;28;20126;-72
2023/05/25 12:36:52;;;;;;;15.85;4.53;;;15.30;92.70;;;;;;5012316;28;20042;-73
2023/05/25 12:39:30;;;;;;;24.70;5.82;;;15.60;92.60;;;;;;5012215;28;20472;-72
2023/05/25 12:41:58;;;;;;;28.52;6.32;;;15.40;92.00;;;;;;4995968;28;20096;-74